sensor_id;sensor_type;location;lat;lon;timestamp;temperature;humidity
53782;DHT22;39692;53.114;7.060;2022-08-01T00:01:47;18.90;99.90
53782;DHT22;39692;53.114;7.060;2022-08-01T00:04:13;18.90;99.90
53782;DHT22;39692;53.114;7.060;2022-08-01T00:06:38;18.90;99.90
53782;DHT22;39692;53.114;7.060;2022-08-01T00:09:04;18.90;99.90
53782;DHT22;39692;53.114;7.060;2022-08-01T00:11:30;18.90;99.90
53782;DHT22;39692;53.114;7.060;2022-08-01T00:13:55;18.90;99.90
53782;DHT22;39692;53.114;7.060;2022-08-01T00:16:21;18.90;99.90
53782;DHT22;39692;53.114;7.060;2022-08-01T00:18:49;18.90;99.90
53782;DHT22;39692;53.114;7.060;2022-08-01T00:21:15;18.90;99.90
53782;DHT22;39692;53.114;7.060;2022-08-01T00:23:41;18.80;99.90
53782;DHT22;39692;53.114;7.060;2022-08-01T00:26:07;18.80;99.90
53782;DHT22;39692;53.114;7.060;2022-08-01T00:28:33;18.80;99.90
53782;DHT22;39692;53.114;7.060;2022-08-01T00:30:59;18.80;99.90
53782;DHT22;39692;53.114;7.060;2022-08-01T00:33:25;18.90;99.90
53782;DHT22;39692;53.114;7.060;2022-08-01T00:35:51;18.90;99.90
53782;DHT22;39692;53.114;7.060;2022-08-01T00:38:17;18.90;99.90
53782;DHT22;39692;53.114;7.060;2022-08-01T00:40:42;18.90;99.90
53782;DHT22;39692;53.114;7.060;2022-08-01T00:43:09;18.80;99.90
53782;DHT22;39692;53.114;7.060;2022-08-01T00:45:35;18.80;99.90
53782;DHT22;39692;53.114;7.060;2022-08-01T00:48:00;18.80;99.90
53782;DHT22;39692;53.114;7.060;2022-08-01T00:50:26;18.90;99.90
53782;DHT22;39692;53.114;7.060;2022-08-01T00:52:53;18.80;99.90
53782;DHT22;39692;53.114;7.060;2022-08-01T00:55:20;18.80;99.90
53782;DHT22;39692;53.114;7.060;2022-08-01T00:57:47;18.90;99.90
53782;DHT22;39692;53.114;7.060;2022-08-01T01:00:13;18.90;99.90
53782;DHT22;39692;53.114;7.060;2022-08-01T01:02:39;18.80;99.90
53782;DHT22;39692;53.114;7.060;2022-08-01T01:05:05;18.80;99.90
53782;DHT22;39692;53.114;7.060;2022-08-01T01:12:50;18.70;99.90
53782;DHT22;39692;53.114;7.060;2022-08-01T01:15:23;18.70;99.90
53782;DHT22;39692;53.114;7.060;2022-08-01T01:18:00;18.70;99.90
53782;DHT22;39692;53.114;7.060;2022-08-01T01:20:34;18.70;99.90
53782;DHT22;39692;53.114;7.060;2022-08-01T01:30:09;18.60;99.90
53782;DHT22;39692;53.114;7.060;2022-08-01T01:32:38;18.50;99.90
53782;DHT22;39692;53.114;7.060;2022-08-01T01:35:09;18.50;99.90
53782;DHT22;39692;53.114;7.060;2022-08-01T01:37:38;18.50;99.90
53782;DHT22;39692;53.114;7.060;2022-08-01T01:40:05;18.50;99.90
53782;DHT22;39692;53.114;7.060;2022-08-01T01:42:32;18.40;99.90
53782;DHT22;39692;53.114;7.060;2022-08-01T01:44:58;18.40;99.90
53782;DHT22;39692;53.114;7.060;2022-08-01T01:47:26;18.40;99.90
53782;DHT22;39692;53.114;7.060;2022-08-01T01:49:54;18.40;99.90
53782;DHT22;39692;53.114;7.060;2022-08-01T01:52:21;18.40;99.90
53782;DHT22;39692;53.114;7.060;2022-08-01T01:54:50;18.40;99.90
53782;DHT22;39692;53.114;7.060;2022-08-01T01:57:18;18.40;99.90
53782;DHT22;39692;53.114;7.060;2022-08-01T01:59:46;18.40;99.90
53782;DHT22;39692;53.114;7.060;2022-08-01T02:02:12;18.50;99.90
53782;DHT22;39692;53.114;7.060;2022-08-01T02:04:43;18.40;99.90
53782;DHT22;39692;53.114;7.060;2022-08-01T02:07:14;18.40;99.90
53782;DHT22;39692;53.114;7.060;2022-08-01T02:09:43;18.40;99.90
53782;DHT22;39692;53.114;7.060;2022-08-01T02:12:13;18.40;99.90
53782;DHT22;39692;53.114;7.060;2022-08-01T02:14:40;18.40;99.90
53782;DHT22;39692;53.114;7.060;2022-08-01T02:17:10;18.40;99.90
53782;DHT22;39692;53.114;7.060;2022-08-01T02:19:37;18.50;99.90
53782;DHT22;39692;53.114;7.060;2022-08-01T02:22:11;18.40;99.90
53782;DHT22;39692;53.114;7.060;2022-08-01T02:28:03;18.40;99.90
53782;DHT22;39692;53.114;7.060;2022-08-01T02:30:35;18.40;99.90
53782;DHT22;39692;53.114;7.060;2022-08-01T02:33:09;18.40;99.90
53782;DHT22;39692;53.114;7.060;2022-08-01T02:35:38;18.40;99.90
53782;DHT22;39692;53.114;7.060;2022-08-01T02:38:09;18.30;99.90
53782;DHT22;39692;53.114;7.060;2022-08-01T02:40:38;18.30;99.90
53782;DHT22;39692;53.114;7.060;2022-08-01T02:43:05;18.30;99.90
53782;DHT22;39692;53.114;7.060;2022-08-01T02:45:32;18.30;99.90
53782;DHT22;39692;53.114;7.060;2022-08-01T02:48:10;18.30;99.90
53782;DHT22;39692;53.114;7.060;2022-08-01T02:50:37;18.30;99.90
53782;DHT22;39692;53.114;7.060;2022-08-01T02:53:05;18.20;99.90
53782;DHT22;39692;53.114;7.060;2022-08-01T02:55:32;18.20;99.90
53782;DHT22;39692;53.114;7.060;2022-08-01T02:58:00;18.20;99.90
53782;DHT22;39692;53.114;7.060;2022-08-01T03:00:28;18.20;99.90
53782;DHT22;39692;53.114;7.060;2022-08-01T03:02:56;18.20;99.90
53782;DHT22;39692;53.114;7.060;2022-08-01T03:05:24;18.10;99.90
53782;DHT22;39692;53.114;7.060;2022-08-01T03:07:51;18.10;99.90
53782;DHT22;39692;53.114;7.060;2022-08-01T03:10:18;18.00;99.90
53782;DHT22;39692;53.114;7.060;2022-08-01T03:12:45;18.00;99.90
53782;DHT22;39692;53.114;7.060;2022-08-01T03:15:13;18.00;99.90
53782;DHT22;39692;53.114;7.060;2022-08-01T03:17:40;18.00;99.90
53782;DHT22;39692;53.114;7.060;2022-08-01T03:20:08;18.00;99.90
53782;DHT22;39692;53.114;7.060;2022-08-01T03:22:37;18.00;99.90
53782;DHT22;39692;53.114;7.060;2022-08-01T03:25:05;17.90;99.90
53782;DHT22;39692;53.114;7.060;2022-08-01T03:27:33;17.90;99.90
53782;DHT22;39692;53.114;7.060;2022-08-01T03:30:03;17.90;99.90
53782;DHT22;39692;53.114;7.060;2022-08-01T03:32:30;17.90;99.90
53782;DHT22;39692;53.114;7.060;2022-08-01T03:34:57;17.80;99.90
53782;DHT22;39692;53.114;7.060;2022-08-01T03:37:46;17.80;99.90
53782;DHT22;39692;53.114;7.060;2022-08-01T03:40:22;17.80;99.90
53782;DHT22;39692;53.114;7.060;2022-08-01T03:42:56;17.80;99.90
53782;DHT22;39692;53.114;7.060;2022-08-01T03:45:25;17.80;99.90
53782;DHT22;39692;53.114;7.060;2022-08-01T03:47:58;17.70;99.90
53782;DHT22;39692;53.114;7.060;2022-08-01T03:50:25;17.70;99.90
53782;DHT22;39692;53.114;7.060;2022-08-01T03:52:53;17.70;99.90
53782;DHT22;39692;53.114;7.060;2022-08-01T03:55:20;17.80;99.90
53782;DHT22;39692;53.114;7.060;2022-08-01T03:57:48;17.70;99.90
53782;DHT22;39692;53.114;7.060;2022-08-01T04:00:14;17.70;99.90
53782;DHT22;39692;53.114;7.060;2022-08-01T04:02:48;17.70;99.90
53782;DHT22;39692;53.114;7.060;2022-08-01T04:05:15;17.70;99.90
53782;DHT22;39692;53.114;7.060;2022-08-01T04:07:45;17.70;99.90
53782;DHT22;39692;53.114;7.060;2022-08-01T04:10:12;17.70;99.90
53782;DHT22;39692;53.114;7.060;2022-08-01T04:12:38;17.80;99.90
53782;DHT22;39692;53.114;7.060;2022-08-01T04:15:04;17.70;99.90
53782;DHT22;39692;53.114;7.060;2022-08-01T04:17:30;17.80;99.90
53782;DHT22;39692;53.114;7.060;2022-08-01T04:19:56;17.80;99.90
53782;DHT22;39692;53.114;7.060;2022-08-01T04:22:22;17.80;99.90
53782;DHT22;39692;53.114;7.060;2022-08-01T04:24:51;17.80;99.90
53782;DHT22;39692;53.114;7.060;2022-08-01T04:27:23;17.80;99.90
53782;DHT22;39692;53.114;7.060;2022-08-01T04:29:52;17.80;99.90
53782;DHT22;39692;53.114;7.060;2022-08-01T04:32:21;17.80;99.90
53782;DHT22;39692;53.114;7.060;2022-08-01T04:34:47;17.80;99.90
53782;DHT22;39692;53.114;7.060;2022-08-01T04:37:15;17.80;99.90
53782;DHT22;39692;53.114;7.060;2022-08-01T04:39:42;17.80;99.90
53782;DHT22;39692;53.114;7.060;2022-08-01T04:42:10;17.80;99.90
53782;DHT22;39692;53.114;7.060;2022-08-01T04:44:37;17.80;99.90
53782;DHT22;39692;53.114;7.060;2022-08-01T04:47:04;17.80;99.90
53782;DHT22;39692;53.114;7.060;2022-08-01T04:49:33;17.80;99.90
53782;DHT22;39692;53.114;7.060;2022-08-01T04:52:00;17.80;99.90
53782;DHT22;39692;53.114;7.060;2022-08-01T04:54:30;17.80;99.90
53782;DHT22;39692;53.114;7.060;2022-08-01T04:56:59;17.90;99.90
53782;DHT22;39692;53.114;7.060;2022-08-01T04:59:28;17.90;99.90
53782;DHT22;39692;53.114;7.060;2022-08-01T05:02:07;17.90;99.90
53782;DHT22;39692;53.114;7.060;2022-08-01T05:04:33;18.00;99.90
53782;DHT22;39692;53.114;7.060;2022-08-01T05:06:59;18.10;99.90
53782;DHT22;39692;53.114;7.060;2022-08-01T05:09:25;18.20;99.90
53782;DHT22;39692;53.114;7.060;2022-08-01T05:11:51;18.20;99.90
53782;DHT22;39692;53.114;7.060;2022-08-01T05:14:17;18.40;99.90
53782;DHT22;39692;53.114;7.060;2022-08-01T05:16:44;18.50;99.90
53782;DHT22;39692;53.114;7.060;2022-08-01T05:19:09;18.50;99.90
53782;DHT22;39692;53.114;7.060;2022-08-01T05:21:35;18.60;99.90
53782;DHT22;39692;53.114;7.060;2022-08-01T05:24:01;18.70;99.90
53782;DHT22;39692;53.114;7.060;2022-08-01T05:26:27;18.70;99.90
53782;DHT22;39692;53.114;7.060;2022-08-01T05:28:53;18.70;99.90
53782;DHT22;39692;53.114;7.060;2022-08-01T05:31:19;18.80;99.90
53782;DHT22;39692;53.114;7.060;2022-08-01T05:33:44;18.80;99.90
53782;DHT22;39692;53.114;7.060;2022-08-01T05:36:10;18.80;99.90
53782;DHT22;39692;53.114;7.060;2022-08-01T05:38:36;18.90;99.90
53782;DHT22;39692;53.114;7.060;2022-08-01T05:41:01;18.90;99.90
53782;DHT22;39692;53.114;7.060;2022-08-01T05:43:27;19.00;99.90
53782;DHT22;39692;53.114;7.060;2022-08-01T05:45:52;19.10;99.90
53782;DHT22;39692;53.114;7.060;2022-08-01T05:48:18;19.10;99.90
53782;DHT22;39692;53.114;7.060;2022-08-01T05:50:44;19.10;99.90
53782;DHT22;39692;53.114;7.060;2022-08-01T05:53:10;19.10;99.90
53782;DHT22;39692;53.114;7.060;2022-08-01T05:55:36;19.10;99.90
53782;DHT22;39692;53.114;7.060;2022-08-01T05:58:02;19.10;99.90
53782;DHT22;39692;53.114;7.060;2022-08-01T06:00:28;19.10;99.90
53782;DHT22;39692;53.114;7.060;2022-08-01T06:02:53;19.10;99.90
53782;DHT22;39692;53.114;7.060;2022-08-01T06:05:19;19.10;99.90
53782;DHT22;39692;53.114;7.060;2022-08-01T06:07:45;19.10;99.90
53782;DHT22;39692;53.114;7.060;2022-08-01T06:10:11;19.10;99.90
53782;DHT22;39692;53.114;7.060;2022-08-01T06:12:36;19.10;99.90
53782;DHT22;39692;53.114;7.060;2022-08-01T06:15:06;19.20;99.90
53782;DHT22;39692;53.114;7.060;2022-08-01T06:17:32;19.10;99.90
53782;DHT22;39692;53.114;7.060;2022-08-01T06:19:58;19.20;99.90
53782;DHT22;39692;53.114;7.060;2022-08-01T06:22:24;19.20;99.90
53782;DHT22;39692;53.114;7.060;2022-08-01T06:24:50;19.20;99.90
53782;DHT22;39692;53.114;7.060;2022-08-01T06:27:16;19.30;99.90
53782;DHT22;39692;53.114;7.060;2022-08-01T06:29:41;19.30;99.90
53782;DHT22;39692;53.114;7.060;2022-08-01T06:32:08;19.30;99.90
53782;DHT22;39692;53.114;7.060;2022-08-01T06:34:35;19.30;99.90
53782;DHT22;39692;53.114;7.060;2022-08-01T06:37:00;19.30;99.90
53782;DHT22;39692;53.114;7.060;2022-08-01T06:39:26;19.20;99.90
53782;DHT22;39692;53.114;7.060;2022-08-01T06:41:52;19.20;99.90
53782;DHT22;39692;53.114;7.060;2022-08-01T06:44:18;19.10;99.90
53782;DHT22;39692;53.114;7.060;2022-08-01T06:46:44;19.00;99.90
53782;DHT22;39692;53.114;7.060;2022-08-01T06:49:09;19.00;99.90
53782;DHT22;39692;53.114;7.060;2022-08-01T06:51:35;19.00;99.90
53782;DHT22;39692;53.114;7.060;2022-08-01T06:54:00;19.00;99.90
53782;DHT22;39692;53.114;7.060;2022-08-01T06:56:26;19.10;99.90
53782;DHT22;39692;53.114;7.060;2022-08-01T06:58:52;19.10;99.90
53782;DHT22;39692;53.114;7.060;2022-08-01T07:01:18;19.20;99.90
53782;DHT22;39692;53.114;7.060;2022-08-01T07:03:43;19.20;99.90
53782;DHT22;39692;53.114;7.060;2022-08-01T07:06:09;19.20;99.90
53782;DHT22;39692;53.114;7.060;2022-08-01T07:08:36;19.30;99.90
53782;DHT22;39692;53.114;7.060;2022-08-01T07:11:01;19.30;99.90
53782;DHT22;39692;53.114;7.060;2022-08-01T07:13:28;19.40;99.90
53782;DHT22;39692;53.114;7.060;2022-08-01T07:15:56;19.40;99.90
53782;DHT22;39692;53.114;7.060;2022-08-01T07:18:22;19.30;99.90
53782;DHT22;39692;53.114;7.060;2022-08-01T07:20:48;19.30;99.90
53782;DHT22;39692;53.114;7.060;2022-08-01T07:23:14;19.20;99.90
53782;DHT22;39692;53.114;7.060;2022-08-01T07:25:40;19.20;99.90
53782;DHT22;39692;53.114;7.060;2022-08-01T07:28:06;19.10;99.90
53782;DHT22;39692;53.114;7.060;2022-08-01T07:30:32;19.10;99.90
53782;DHT22;39692;53.114;7.060;2022-08-01T07:32:58;19.10;99.90
53782;DHT22;39692;53.114;7.060;2022-08-01T07:35:23;19.10;99.90
53782;DHT22;39692;53.114;7.060;2022-08-01T07:37:49;19.10;99.90
53782;DHT22;39692;53.114;7.060;2022-08-01T07:40:16;19.20;99.90
53782;DHT22;39692;53.114;7.060;2022-08-01T07:42:42;19.20;99.90
53782;DHT22;39692;53.114;7.060;2022-08-01T07:45:09;19.20;99.90
53782;DHT22;39692;53.114;7.060;2022-08-01T07:47:35;19.20;99.90
53782;DHT22;39692;53.114;7.060;2022-08-01T07:50:03;19.20;99.90
53782;DHT22;39692;53.114;7.060;2022-08-01T07:52:29;19.20;99.90
53782;DHT22;39692;53.114;7.060;2022-08-01T07:54:56;19.10;99.90
53782;DHT22;39692;53.114;7.060;2022-08-01T07:57:22;19.00;99.90
53782;DHT22;39692;53.114;7.060;2022-08-01T07:59:48;19.10;99.90
53782;DHT22;39692;53.114;7.060;2022-08-01T08:02:14;19.00;99.90
53782;DHT22;39692;53.114;7.060;2022-08-01T08:04:41;19.10;99.90
53782;DHT22;39692;53.114;7.060;2022-08-01T08:07:06;19.10;99.90
53782;DHT22;39692;53.114;7.060;2022-08-01T08:09:32;19.30;99.90
53782;DHT22;39692;53.114;7.060;2022-08-01T08:11:58;19.50;99.90
53782;DHT22;39692;53.114;7.060;2022-08-01T08:14:24;19.60;99.90
53782;DHT22;39692;53.114;7.060;2022-08-01T08:16:51;19.90;99.90
53782;DHT22;39692;53.114;7.060;2022-08-01T08:19:16;20.10;99.90
53782;DHT22;39692;53.114;7.060;2022-08-01T08:21:42;20.40;99.90
53782;DHT22;39692;53.114;7.060;2022-08-01T08:24:09;20.80;99.90
53782;DHT22;39692;53.114;7.060;2022-08-01T08:26:54;21.30;99.90
53782;DHT22;39692;53.114;7.060;2022-08-01T08:29:20;22.50;99.90
53782;DHT22;39692;53.114;7.060;2022-08-01T08:31:47;24.00;99.90
53782;DHT22;39692;53.114;7.060;2022-08-01T08:34:12;25.40;99.90
53782;DHT22;39692;53.114;7.060;2022-08-01T08:36:38;26.80;91.30
53782;DHT22;39692;53.114;7.060;2022-08-01T08:39:04;28.00;79.30
53782;DHT22;39692;53.114;7.060;2022-08-01T08:41:34;28.50;73.30
53782;DHT22;39692;53.114;7.060;2022-08-01T08:44:04;27.80;69.90
53782;DHT22;39692;53.114;7.060;2022-08-01T08:46:31;28.50;70.40
53782;DHT22;39692;53.114;7.060;2022-08-01T08:49:00;29.70;68.00
53782;DHT22;39692;53.114;7.060;2022-08-01T08:51:26;29.80;63.90
53782;DHT22;39692;53.114;7.060;2022-08-01T08:53:56;29.10;62.80
53782;DHT22;39692;53.114;7.060;2022-08-01T08:56:24;28.70;62.70
53782;DHT22;39692;53.114;7.060;2022-08-01T08:58:50;28.20;63.00
53782;DHT22;39692;53.114;7.060;2022-08-01T09:01:17;28.70;64.20
53782;DHT22;39692;53.114;7.060;2022-08-01T09:03:43;29.40;62.80
53782;DHT22;39692;53.114;7.060;2022-08-01T09:06:09;30.50;61.60
53782;DHT22;39692;53.114;7.060;2022-08-01T09:08:36;31.20;59.30
53782;DHT22;39692;53.114;7.060;2022-08-01T09:11:03;31.80;58.80
53782;DHT22;39692;53.114;7.060;2022-08-01T09:13:29;32.20;56.50
53782;DHT22;39692;53.114;7.060;2022-08-01T09:15:55;31.80;55.50
53782;DHT22;39692;53.114;7.060;2022-08-01T09:18:39;30.80;54.90
53782;DHT22;39692;53.114;7.060;2022-08-01T09:23:39;29.40;57.70
53782;DHT22;39692;53.114;7.060;2022-08-01T09:26:08;30.00;56.40
53782;DHT22;39692;53.114;7.060;2022-08-01T09:28:35;30.80;56.80
53782;DHT22;39692;53.114;7.060;2022-08-01T09:31:10;31.10;56.20
53782;DHT22;39692;53.114;7.060;2022-08-01T09:33:58;30.00;54.60
53782;DHT22;39692;53.114;7.060;2022-08-01T09:36:26;29.40;54.50
53782;DHT22;39692;53.114;7.060;2022-08-01T09:38:53;28.40;56.40
53782;DHT22;39692;53.114;7.060;2022-08-01T09:41:31;28.20;57.50
53782;DHT22;39692;53.114;7.060;2022-08-01T09:43:58;28.80;56.60
53782;DHT22;39692;53.114;7.060;2022-08-01T09:46:25;29.50;57.50
53782;DHT22;39692;53.114;7.060;2022-08-01T09:49:04;29.70;55.50
53782;DHT22;39692;53.114;7.060;2022-08-01T09:51:36;30.10;54.80
53782;DHT22;39692;53.114;7.060;2022-08-01T09:54:03;30.50;52.90
53782;DHT22;39692;53.114;7.060;2022-08-01T09:56:40;30.50;54.10
53782;DHT22;39692;53.114;7.060;2022-08-01T09:59:08;30.70;53.60
53782;DHT22;39692;53.114;7.060;2022-08-01T10:01:48;31.00;53.00
53782;DHT22;39692;53.114;7.060;2022-08-01T10:04:19;31.20;51.40
53782;DHT22;39692;53.114;7.060;2022-08-01T10:06:50;31.20;51.60
53782;DHT22;39692;53.114;7.060;2022-08-01T10:09:35;30.60;50.30
53782;DHT22;39692;53.114;7.060;2022-08-01T10:12:01;30.50;50.10
53782;DHT22;39692;53.114;7.060;2022-08-01T10:14:28;30.60;52.50
53782;DHT22;39692;53.114;7.060;2022-08-01T10:16:56;30.70;52.60
53782;DHT22;39692;53.114;7.060;2022-08-01T10:19:25;30.90;52.30
53782;DHT22;39692;53.114;7.060;2022-08-01T10:21:52;31.10;51.80
53782;DHT22;39692;53.114;7.060;2022-08-01T10:24:20;31.40;51.90
53782;DHT22;39692;53.114;7.060;2022-08-01T10:26:52;31.10;52.20
53782;DHT22;39692;53.114;7.060;2022-08-01T10:29:20;30.20;50.80
53782;DHT22;39692;53.114;7.060;2022-08-01T10:31:47;29.60;51.80
53782;DHT22;39692;53.114;7.060;2022-08-01T10:34:14;29.60;52.10
53782;DHT22;39692;53.114;7.060;2022-08-01T10:36:43;30.10;52.50
53782;DHT22;39692;53.114;7.060;2022-08-01T10:39:12;30.20;52.10
53782;DHT22;39692;53.114;7.060;2022-08-01T10:41:39;30.30;50.80
53782;DHT22;39692;53.114;7.060;2022-08-01T10:44:09;30.00;51.20
53782;DHT22;39692;53.114;7.060;2022-08-01T10:46:39;29.40;51.60
53782;DHT22;39692;53.114;7.060;2022-08-01T10:49:10;29.00;52.30
53782;DHT22;39692;53.114;7.060;2022-08-01T10:51:40;28.50;52.10
53782;DHT22;39692;53.114;7.060;2022-08-01T10:54:08;28.20;53.50
53782;DHT22;39692;53.114;7.060;2022-08-01T10:56:48;28.00;54.10
53782;DHT22;39692;53.114;7.060;2022-08-01T10:59:32;28.10;54.10
53782;DHT22;39692;53.114;7.060;2022-08-01T11:02:04;28.00;54.20
53782;DHT22;39692;53.114;7.060;2022-08-01T11:07:17;27.30;53.90
53782;DHT22;39692;53.114;7.060;2022-08-01T11:09:47;27.30;54.70
53782;DHT22;39692;53.114;7.060;2022-08-01T11:12:16;28.00;55.30
53782;DHT22;39692;53.114;7.060;2022-08-01T11:20:07;29.80;52.70
53782;DHT22;39692;53.114;7.060;2022-08-01T11:30:45;28.50;51.20
53782;DHT22;39692;53.114;7.060;2022-08-01T11:33:12;27.90;52.60
53782;DHT22;39692;53.114;7.060;2022-08-01T11:38:46;26.90;54.10
53782;DHT22;39692;53.114;7.060;2022-08-01T11:41:20;26.30;54.40
53782;DHT22;39692;53.114;7.060;2022-08-01T11:44:07;26.20;55.30
53782;DHT22;39692;53.114;7.060;2022-08-01T11:47:04;26.30;55.90
53782;DHT22;39692;53.114;7.060;2022-08-01T11:49:48;27.00;56.00
53782;DHT22;39692;53.114;7.060;2022-08-01T11:52:30;27.80;54.70
53782;DHT22;39692;53.114;7.060;2022-08-01T11:57:30;27.80;52.60
53782;DHT22;39692;53.114;7.060;2022-08-01T11:59:58;27.70;53.30
53782;DHT22;39692;53.114;7.060;2022-08-01T12:02:30;27.60;53.10
53782;DHT22;39692;53.114;7.060;2022-08-01T12:05:05;27.30;53.20
53782;DHT22;39692;53.114;7.060;2022-08-01T12:07:32;27.40;53.10
53782;DHT22;39692;53.114;7.060;2022-08-01T12:10:04;27.80;54.00
53782;DHT22;39692;53.114;7.060;2022-08-01T12:12:31;28.40;54.40
53782;DHT22;39692;53.114;7.060;2022-08-01T12:15:00;28.50;52.70
53782;DHT22;39692;53.114;7.060;2022-08-01T12:20:07;28.50;52.20
53782;DHT22;39692;53.114;7.060;2022-08-01T12:22:33;28.70;52.50
53782;DHT22;39692;53.114;7.060;2022-08-01T12:25:25;29.00;53.10
53782;DHT22;39692;53.114;7.060;2022-08-01T12:27:52;29.10;51.00
53782;DHT22;39692;53.114;7.060;2022-08-01T12:30:20;28.90;51.60
53782;DHT22;39692;53.114;7.060;2022-08-01T12:32:49;29.00;51.40
53782;DHT22;39692;53.114;7.060;2022-08-01T12:35:16;29.20;51.60
53782;DHT22;39692;53.114;7.060;2022-08-01T12:37:47;29.40;50.70
53782;DHT22;39692;53.114;7.060;2022-08-01T12:40:23;29.60;49.10
53782;DHT22;39692;53.114;7.060;2022-08-01T12:43:08;29.70;49.40
53782;DHT22;39692;53.114;7.060;2022-08-01T12:45:39;29.40;49.20
53782;DHT22;39692;53.114;7.060;2022-08-01T12:48:12;28.80;49.10
53782;DHT22;39692;53.114;7.060;2022-08-01T12:50:40;28.50;50.80
53782;DHT22;39692;53.114;7.060;2022-08-01T12:53:08;28.30;50.20
53782;DHT22;39692;53.114;7.060;2022-08-01T12:55:50;27.90;49.90
53782;DHT22;39692;53.114;7.060;2022-08-01T12:58:20;27.60;50.40
53782;DHT22;39692;53.114;7.060;2022-08-01T13:00:47;27.40;51.60
53782;DHT22;39692;53.114;7.060;2022-08-01T13:03:18;27.30;51.90
53782;DHT22;39692;53.114;7.060;2022-08-01T13:05:55;27.30;52.30
53782;DHT22;39692;53.114;7.060;2022-08-01T13:11:11;27.50;52.80
53782;DHT22;39692;53.114;7.060;2022-08-01T13:13:43;27.50;52.20
53782;DHT22;39692;53.114;7.060;2022-08-01T13:16:10;27.50;52.10
53782;DHT22;39692;53.114;7.060;2022-08-01T13:18:36;27.50;50.90
53782;DHT22;39692;53.114;7.060;2022-08-01T13:21:13;27.60;51.90
53782;DHT22;39692;53.114;7.060;2022-08-01T13:23:40;27.30;50.60
53782;DHT22;39692;53.114;7.060;2022-08-01T13:26:06;27.00;51.90
53782;DHT22;39692;53.114;7.060;2022-08-01T13:28:33;27.00;52.80
53782;DHT22;39692;53.114;7.060;2022-08-01T13:31:05;26.90;51.90
53782;DHT22;39692;53.114;7.060;2022-08-01T13:33:46;27.00;52.40
53782;DHT22;39692;53.114;7.060;2022-08-01T13:36:13;27.00;51.30
53782;DHT22;39692;53.114;7.060;2022-08-01T13:38:40;26.90;52.20
53782;DHT22;39692;53.114;7.060;2022-08-01T13:41:24;26.80;53.30
53782;DHT22;39692;53.114;7.060;2022-08-01T13:43:50;26.60;53.00
53782;DHT22;39692;53.114;7.060;2022-08-01T13:46:16;26.20;52.60
53782;DHT22;39692;53.114;7.060;2022-08-01T13:48:42;25.90;53.20
53782;DHT22;39692;53.114;7.060;2022-08-01T13:51:07;25.70;52.90
53782;DHT22;39692;53.114;7.060;2022-08-01T13:53:33;25.60;54.30
53782;DHT22;39692;53.114;7.060;2022-08-01T13:55:59;25.50;54.90
53782;DHT22;39692;53.114;7.060;2022-08-01T13:58:24;25.40;54.60
53782;DHT22;39692;53.114;7.060;2022-08-01T14:00:50;25.30;54.50
53782;DHT22;39692;53.114;7.060;2022-08-01T14:03:16;25.20;54.60
53782;DHT22;39692;53.114;7.060;2022-08-01T14:05:43;25.00;54.60
53782;DHT22;39692;53.114;7.060;2022-08-01T14:08:09;24.70;54.30
53782;DHT22;39692;53.114;7.060;2022-08-01T14:10:35;24.40;56.00
53782;DHT22;39692;53.114;7.060;2022-08-01T14:13:01;24.30;56.20
53782;DHT22;39692;53.114;7.060;2022-08-01T14:15:27;24.30;56.20
53782;DHT22;39692;53.114;7.060;2022-08-01T14:17:52;24.20;55.60
53782;DHT22;39692;53.114;7.060;2022-08-01T14:20:18;24.30;56.60
53782;DHT22;39692;53.114;7.060;2022-08-01T14:22:46;24.40;57.10
53782;DHT22;39692;53.114;7.060;2022-08-01T14:25:11;24.50;58.00
53782;DHT22;39692;53.114;7.060;2022-08-01T14:27:37;24.60;57.20
53782;DHT22;39692;53.114;7.060;2022-08-01T14:30:06;24.60;56.10
53782;DHT22;39692;53.114;7.060;2022-08-01T14:32:32;24.60;56.30
53782;DHT22;39692;53.114;7.060;2022-08-01T14:35:02;24.60;56.80
53782;DHT22;39692;53.114;7.060;2022-08-01T14:37:28;24.60;57.00
53782;DHT22;39692;53.114;7.060;2022-08-01T14:39:57;24.60;56.50
53782;DHT22;39692;53.114;7.060;2022-08-01T14:42:23;24.60;57.40
53782;DHT22;39692;53.114;7.060;2022-08-01T14:44:49;24.50;56.70
53782;DHT22;39692;53.114;7.060;2022-08-01T14:47:15;24.40;56.00
53782;DHT22;39692;53.114;7.060;2022-08-01T14:49:40;24.40;57.20
53782;DHT22;39692;53.114;7.060;2022-08-01T14:52:06;24.40;57.10
53782;DHT22;39692;53.114;7.060;2022-08-01T14:54:32;24.40;57.10
53782;DHT22;39692;53.114;7.060;2022-08-01T14:56:58;24.30;56.30
53782;DHT22;39692;53.114;7.060;2022-08-01T14:59:23;24.20;57.10
53782;DHT22;39692;53.114;7.060;2022-08-01T15:01:49;24.10;57.70
53782;DHT22;39692;53.114;7.060;2022-08-01T15:04:15;24.00;57.70
53782;DHT22;39692;53.114;7.060;2022-08-01T15:06:43;23.70;57.20
53782;DHT22;39692;53.114;7.060;2022-08-01T15:09:08;23.50;58.20
53782;DHT22;39692;53.114;7.060;2022-08-01T15:11:34;23.50;59.40
53782;DHT22;39692;53.114;7.060;2022-08-01T15:14:00;23.40;58.90
53782;DHT22;39692;53.114;7.060;2022-08-01T15:16:44;23.40;59.30
53782;DHT22;39692;53.114;7.060;2022-08-01T15:19:09;23.40;59.80
53782;DHT22;39692;53.114;7.060;2022-08-01T15:21:35;23.40;59.60
53782;DHT22;39692;53.114;7.060;2022-08-01T15:24:01;23.30;58.70
53782;DHT22;39692;53.114;7.060;2022-08-01T15:26:26;23.40;58.70
53782;DHT22;39692;53.114;7.060;2022-08-01T15:28:53;23.50;59.50
53782;DHT22;39692;53.114;7.060;2022-08-01T15:31:19;23.50;59.40
53782;DHT22;39692;53.114;7.060;2022-08-01T15:33:44;23.50;60.40
53782;DHT22;39692;53.114;7.060;2022-08-01T15:36:16;23.50;59.50
53782;DHT22;39692;53.114;7.060;2022-08-01T15:38:44;23.40;59.20
53782;DHT22;39692;53.114;7.060;2022-08-01T15:41:10;23.30;58.80
53782;DHT22;39692;53.114;7.060;2022-08-01T15:43:36;23.30;59.70
53782;DHT22;39692;53.114;7.060;2022-08-01T15:46:03;23.20;60.20
53782;DHT22;39692;53.114;7.060;2022-08-01T15:48:29;23.10;60.20
53782;DHT22;39692;53.114;7.060;2022-08-01T15:50:55;23.00;60.00
53782;DHT22;39692;53.114;7.060;2022-08-01T15:53:20;23.10;60.80
53782;DHT22;39692;53.114;7.060;2022-08-01T15:55:46;23.00;61.10
53782;DHT22;39692;53.114;7.060;2022-08-01T15:58:12;23.00;61.30
53782;DHT22;39692;53.114;7.060;2022-08-01T16:00:38;22.90;61.00
53782;DHT22;39692;53.114;7.060;2022-08-01T16:03:04;22.80;60.60
53782;DHT22;39692;53.114;7.060;2022-08-01T16:05:29;22.70;60.60
53782;DHT22;39692;53.114;7.060;2022-08-01T16:07:55;22.70;60.50
53782;DHT22;39692;53.114;7.060;2022-08-01T16:10:21;22.70;61.50
53782;DHT22;39692;53.114;7.060;2022-08-01T16:12:46;22.60;61.30
53782;DHT22;39692;53.114;7.060;2022-08-01T16:15:12;22.50;61.30
53782;DHT22;39692;53.114;7.060;2022-08-01T16:17:38;22.50;61.70
53782;DHT22;39692;53.114;7.060;2022-08-01T16:20:04;22.40;61.50
53782;DHT22;39692;53.114;7.060;2022-08-01T16:22:30;22.30;61.70